Hauptseite
METAR-TAF:

METAR-TAF

Flughäfen :

Flughafen Mailand-Malpensa

Mailand, Italien

Breite: 45-37N, Länge: 008-44E, Höhe: 234 m

Beobachtung

Neuester Wetterbericht von vor 21 Minuten, um 02:50 UTC
Wind 4 kt aus Nord/Nordost
Temperatur 15°C
Luftfeuchtigkeit 88%
Luftdruck 1020 hPa
Sichtweite: 8000 m
Aufgelockert bewölkt in der Höhe von 8000 ft

METAR: LIMC 160250Z 02004KT 8000 SCT080 15/13 Q1020 NOSIG

Zeit: 05:11 (03:11 UTC)

Prognose

Neuester Wetterbericht von vor 4 Stunden und 11 Minuten, um 23:00 UTC
Gültige Prognose vom 16 um 00 UTC bis 17 um 06 UTC
Wind 5 kt aus Nord/Nordost
Sichtweite 10 km oder mehr
Aufgelockert bewölkt in der Höhe von 6000 ft

TAF: LIMC 152300Z 1600/1706 03005KT 9999 SCT060

Wetterbeobachtungen und Prognosen von mehr als 4000 Flughäfen (METAR und TAF Bericht).

Die verfügbaren Stationen werden durch gelbe und rote Markierungen auf der Karte dargestellt.

Führen Sie die Maus auf sie, um den Namen der Station zu sehen.

Darauf klicken, um die Beobachtung von Wetterbeobachtungen und Prognosen zu sehen.

Um die Karte zu ändern : klicken Sie auf den grünen Tasten mit einem schwarzen Kreuz Zum Vergrößern, auf den grünen Button mit einem Gedankenstrich zu verkleinern, oder auf die grünen Pfeile für benachbarte Karten.


METAR-TAF: